createdAt,value
2023-03-24T00:00:23.885Z,20.70
2023-03-24T00:02:56.523Z,20.70
2023-03-24T00:05:28.520Z,20.40
2023-03-24T00:08:03.181Z,20.60
2023-03-24T00:10:34.857Z,20.70
2023-03-24T00:13:06.062Z,20.80
2023-03-24T00:15:36.922Z,20.60
2023-03-24T00:18:10.798Z,20.70
2023-03-24T00:20:42.366Z,20.80
2023-03-24T00:23:13.232Z,20.80
2023-03-24T00:25:45.127Z,20.80
2023-03-24T00:28:16.301Z,20.80
2023-03-24T00:30:53.059Z,20.70
2023-03-24T00:33:25.335Z,20.70
2023-03-24T00:35:57.827Z,21.00
2023-03-24T00:38:29.295Z,20.90
2023-03-24T00:41:01.995Z,20.80
2023-03-24T00:43:33.825Z,20.80
2023-03-24T00:46:11.869Z,20.80
2023-03-24T00:48:42.801Z,21.00
2023-03-24T00:51:13.921Z,21.10
2023-03-24T00:53:44.841Z,21.00
2023-03-24T00:56:15.788Z,21.00
2023-03-24T00:58:46.731Z,21.40
2023-03-24T01:01:17.721Z,21.40
2023-03-24T01:03:50.769Z,21.40
2023-03-24T01:06:22.533Z,21.20
2023-03-24T01:08:54.211Z,21.10
2023-03-24T01:11:27.197Z,21.10
2023-03-24T01:13:58.722Z,20.90
2023-03-24T01:16:29.816Z,20.80
2023-03-24T01:19:00.853Z,21.00
2023-03-24T01:21:31.927Z,20.80
2023-03-24T01:24:05.109Z,20.60
2023-03-24T01:26:36.203Z,20.60
2023-03-24T01:29:07.463Z,21.00
2023-03-24T01:31:38.689Z,20.90
2023-03-24T01:34:09.635Z,20.90
2023-03-24T01:36:40.521Z,21.10
2023-03-24T01:39:11.677Z,21.30
2023-03-24T01:41:42.665Z,21.30
2023-03-24T01:44:34.495Z,21.00
2023-03-24T01:47:08.896Z,21.10
2023-03-24T01:49:55.377Z,21.10
2023-03-24T01:52:33.130Z,20.90
2023-03-24T01:55:14.171Z,21.00
2023-03-24T01:57:51.555Z,21.10
2023-03-24T02:00:23.252Z,21.00
2023-03-24T02:03:03.649Z,20.80
2023-03-24T02:05:39.050Z,21.00
2023-03-24T02:08:44.326Z,21.10
2023-03-24T02:11:15.860Z,21.00
2023-03-24T02:13:46.931Z,20.90
2023-03-24T02:16:41.878Z,21.30
2023-03-24T02:19:38.381Z,21.40
2023-03-24T02:22:33.548Z,21.20
2023-03-24T02:25:36.121Z,21.30
2023-03-24T02:28:32.873Z,21.50
2023-03-24T02:31:34.331Z,21.50
2023-03-24T02:34:46.569Z,21.70
2023-03-24T02:38:11.134Z,21.30
2023-03-24T02:40:50.113Z,21.60
2023-03-24T02:43:49.103Z,21.60
2023-03-24T02:46:36.278Z,21.50
2023-03-24T02:49:21.540Z,21.30
2023-03-24T02:52:09.319Z,21.30
2023-03-24T02:55:03.228Z,21.20
2023-03-24T02:57:45.749Z,20.80
2023-03-24T03:00:47.373Z,21.00
2023-03-24T03:03:31.830Z,21.10
2023-03-24T03:06:16.124Z,21.20
2023-03-24T03:08:48.644Z,21.50
2023-03-24T03:11:19.641Z,21.40
2023-03-24T03:13:57.412Z,21.30
2023-03-24T03:16:39.288Z,21.50
2023-03-24T03:19:21.450Z,21.60
2023-03-24T03:21:53.744Z,21.60
2023-03-24T03:24:34.324Z,21.60
2023-03-24T03:27:39.763Z,21.30
2023-03-24T03:30:23.881Z,21.40
2023-03-24T03:33:03.940Z,21.20
2023-03-24T03:36:09.200Z,21.50
2023-03-24T03:39:38.955Z,21.60
2023-03-24T03:42:09.916Z,21.60
2023-03-24T03:44:41.015Z,21.50
2023-03-24T03:47:11.991Z,21.40
2023-03-24T03:49:43.802Z,21.40
2023-03-24T03:52:15.529Z,21.40
2023-03-24T03:54:47.371Z,21.30
2023-03-24T03:57:19.939Z,21.40
2023-03-24T03:59:50.988Z,21.10
2023-03-24T04:03:26.760Z,21.20
2023-03-24T04:06:15.470Z,21.30
2023-03-24T04:09:05.871Z,21.30
2023-03-24T04:12:13.083Z,21.20
2023-03-24T04:14:55.835Z,21.20
2023-03-24T04:17:52.057Z,21.10
2023-03-24T04:20:38.392Z,21.30
2023-03-24T04:23:32.422Z,21.10
2023-03-24T04:26:37.012Z,21.20
2023-03-24T04:29:31.541Z,21.30
2023-03-24T04:32:20.212Z,21.40
2023-03-24T04:35:01.537Z,21.10
2023-03-24T04:37:38.035Z,21.10
2023-03-24T04:40:13.342Z,21.30
2023-03-24T04:42:53.613Z,21.20
2023-03-24T04:45:26.042Z,21.20
2023-03-24T04:48:02.060Z,20.90
2023-03-24T04:50:37.045Z,21.40
2023-03-24T04:53:09.956Z,21.50
2023-03-24T04:55:49.992Z,21.30
2023-03-24T04:58:22.768Z,21.20
2023-03-24T05:00:55.592Z,21.60
2023-03-24T05:03:26.861Z,21.50
2023-03-24T05:05:59.467Z,21.50
2023-03-24T05:08:31.208Z,20.80
2023-03-24T05:11:02.137Z,21.00
2023-03-24T05:13:33.094Z,20.70
2023-03-24T05:16:04.359Z,20.90
2023-03-24T05:18:35.438Z,21.20
2023-03-24T05:21:06.940Z,21.10
2023-03-24T05:23:38.451Z,20.60
2023-03-24T05:26:09.930Z,20.30
2023-03-24T05:28:41.038Z,20.50
2023-03-24T05:31:12.061Z,20.20
2023-03-24T05:33:43.113Z,20.10
2023-03-24T05:36:14.655Z,20.10
2023-03-24T05:38:45.840Z,20.20
2023-03-24T05:41:16.784Z,19.60
2023-03-24T05:43:47.737Z,19.90
2023-03-24T05:46:18.744Z,19.80
2023-03-24T05:48:52.062Z,19.50
2023-03-24T05:51:22.994Z,19.50
2023-03-24T05:53:53.888Z,19.30
2023-03-24T05:56:24.920Z,20.20
2023-03-24T05:58:55.924Z,20.60
2023-03-24T06:01:28.963Z,20.50
2023-03-24T06:04:00.110Z,20.80
2023-03-24T06:06:31.174Z,21.10
2023-03-24T06:09:04.898Z,21.30
2023-03-24T06:11:35.780Z,21.20
2023-03-24T06:14:08.973Z,21.40
2023-03-24T06:16:39.896Z,21.10
2023-03-24T06:19:11.038Z,20.80
2023-03-24T06:21:42.151Z,20.80
2023-03-24T06:24:14.914Z,20.80
2023-03-24T06:26:49.670Z,20.70
2023-03-24T06:29:20.585Z,20.70
2023-03-24T06:31:51.665Z,20.70
2023-03-24T06:34:25.127Z,20.60
2023-03-24T06:36:56.545Z,21.00
2023-03-24T06:39:27.668Z,21.00
2023-03-24T06:41:58.587Z,21.30
2023-03-24T06:44:29.589Z,21.10
2023-03-24T06:47:01.126Z,21.10
2023-03-24T06:49:34.806Z,21.20
2023-03-24T06:52:05.873Z,21.00
2023-03-24T06:54:37.593Z,20.80
2023-03-24T06:57:08.552Z,20.10
2023-03-24T06:59:39.512Z,20.60
2023-03-24T07:02:13.504Z,20.90
2023-03-24T07:04:45.949Z,20.90
2023-03-24T07:09:51.445Z,20.60
2023-03-24T07:12:22.361Z,20.00
2023-03-24T07:14:53.368Z,19.80
2023-03-24T07:17:50.957Z,19.90
2023-03-24T07:20:22.182Z,20.10
2023-03-24T07:22:57.324Z,20.00
2023-03-24T07:25:28.631Z,19.40
2023-03-24T07:27:59.637Z,20.00
2023-03-24T07:30:40.044Z,19.20
2023-03-24T07:33:12.591Z,18.90
2023-03-24T07:35:44.517Z,19.20
2023-03-24T07:38:15.740Z,18.60
2023-03-24T07:40:47.528Z,19.00
2023-03-24T07:43:18.884Z,18.90
2023-03-24T07:45:50.135Z,18.70
2023-03-24T07:48:21.260Z,19.40
2023-03-24T07:50:54.037Z,18.30
2023-03-24T07:53:25.138Z,18.60
2023-03-24T07:55:56.191Z,18.20
2023-03-24T07:58:27.194Z,18.20
2023-03-24T08:00:58.333Z,18.90
2023-03-24T08:03:29.418Z,18.50
2023-03-24T08:06:01.146Z,18.80
2023-03-24T08:08:32.558Z,19.10
2023-03-24T08:11:04.809Z,18.60
2023-03-24T08:13:36.097Z,18.30
2023-03-24T08:16:07.777Z,18.50
2023-03-24T08:18:38.980Z,18.80
2023-03-24T08:21:09.938Z,18.70
2023-03-24T08:23:41.519Z,18.50
2023-03-24T08:26:12.465Z,18.80
2023-03-24T08:28:43.729Z,18.40
2023-03-24T08:31:14.688Z,19.30
2023-03-24T08:33:45.665Z,18.60
2023-03-24T08:36:16.849Z,19.40
2023-03-24T08:38:48.198Z,19.00
2023-03-24T08:41:19.162Z,18.90
2023-03-24T08:43:50.136Z,19.00
2023-03-24T08:46:21.069Z,18.80
2023-03-24T08:48:52.061Z,19.30
2023-03-24T08:51:23.097Z,19.30
2023-03-24T08:53:55.395Z,19.40
2023-03-24T08:56:26.326Z,19.20
2023-03-24T08:58:57.993Z,19.40
2023-03-24T09:01:29.042Z,19.30
2023-03-24T09:04:00.551Z,19.00
2023-03-24T09:06:32.749Z,19.60
2023-03-24T09:09:03.934Z,19.50
2023-03-24T09:11:36.693Z,19.50
2023-03-24T09:14:09.079Z,19.00
2023-03-24T09:16:40.681Z,18.80
2023-03-24T09:19:11.642Z,19.50
2023-03-24T09:21:46.438Z,19.20
2023-03-24T09:24:17.430Z,20.00
2023-03-24T09:26:48.412Z,20.30
2023-03-24T09:29:19.403Z,19.80
2023-03-24T09:31:50.908Z,20.00
2023-03-24T09:34:22.061Z,20.20
2023-03-24T09:36:53.189Z,19.80
2023-03-24T09:39:24.104Z,20.30
2023-03-24T09:41:56.113Z,20.30
2023-03-24T09:44:50.147Z,20.00
2023-03-24T09:47:37.566Z,20.80
2023-03-24T09:50:40.630Z,20.40
2023-03-24T09:53:43.308Z,20.30
2023-03-24T09:56:18.964Z,19.50
2023-03-24T09:59:28.312Z,20.20
2023-03-24T10:01:59.345Z,20.50
2023-03-24T10:04:32.363Z,20.80
2023-03-24T10:07:30.905Z,20.90
2023-03-24T10:10:02.616Z,20.50
2023-03-24T10:12:39.618Z,20.20
2023-03-24T10:15:37.598Z,20.60
2023-03-24T10:18:56.397Z,21.10
2023-03-24T10:21:28.430Z,21.20
2023-03-24T10:24:30.597Z,21.20
2023-03-24T10:27:22.468Z,20.30
2023-03-24T10:30:02.508Z,20.20
2023-03-24T10:32:35.848Z,20.50
2023-03-24T10:35:15.878Z,20.40
2023-03-24T10:37:48.038Z,20.30
2023-03-24T10:40:23.324Z,20.90
2023-03-24T10:43:07.440Z,21.00
2023-03-24T10:45:45.576Z,21.00
2023-03-24T10:48:34.412Z,21.00
2023-03-24T10:51:06.617Z,20.60
2023-03-24T10:53:37.697Z,21.00
2023-03-24T10:56:09.419Z,20.90
2023-03-24T10:58:42.463Z,20.70
2023-03-24T11:01:30.297Z,20.50
2023-03-24T11:04:05.606Z,20.40
2023-03-24T11:06:36.943Z,20.10
2023-03-24T11:09:22.766Z,20.80
2023-03-24T11:11:53.754Z,21.10
2023-03-24T11:14:28.009Z,20.80
2023-03-24T11:17:17.467Z,20.50
2023-03-24T11:19:56.770Z,21.30
2023-03-24T11:22:27.936Z,21.10
2023-03-24T11:24:59.271Z,21.40
2023-03-24T11:27:31.879Z,21.20
2023-03-24T11:30:03.128Z,20.80
2023-03-24T11:32:35.291Z,20.70
2023-03-24T11:35:14.333Z,20.90
2023-03-24T11:37:46.363Z,20.50
2023-03-24T11:40:25.275Z,21.40
2023-03-24T11:43:00.894Z,21.50
2023-03-24T11:45:40.857Z,20.90
2023-03-24T11:48:42.160Z,20.80
2023-03-24T11:51:25.978Z,21.20
2023-03-24T11:53:58.400Z,20.60
2023-03-24T11:56:42.272Z,20.50
2023-03-24T11:59:37.654Z,20.50
2023-03-24T12:02:08.633Z,20.80
2023-03-24T12:05:02.493Z,20.80
2023-03-24T12:07:55.004Z,21.60
2023-03-24T12:10:53.431Z,21.40
2023-03-24T12:13:49.736Z,20.60
2023-03-24T12:16:29.671Z,21.00
2023-03-24T12:19:34.499Z,21.20
2023-03-24T12:22:26.393Z,20.60
2023-03-24T12:25:23.066Z,20.50
2023-03-24T12:28:08.622Z,20.60
2023-03-24T12:31:30.031Z,20.60
2023-03-24T12:34:47.339Z,20.60
2023-03-24T12:38:04.844Z,21.20
2023-03-24T12:40:49.086Z,20.70
2023-03-24T12:44:03.797Z,20.20
2023-03-24T12:47:01.467Z,20.80
2023-03-24T12:50:03.306Z,20.40
2023-03-24T12:53:07.585Z,20.60
2023-03-24T12:55:47.228Z,20.50
2023-03-24T12:58:24.773Z,20.70
2023-03-24T13:01:07.620Z,20.70
2023-03-24T13:03:47.267Z,20.90
2023-03-24T13:06:45.819Z,21.10
2023-03-24T13:10:06.997Z,20.80
2023-03-24T13:12:55.442Z,21.10
2023-03-24T13:15:35.190Z,21.30
2023-03-24T13:18:12.259Z,21.30
2023-03-24T13:21:04.525Z,20.90
2023-03-24T13:24:09.340Z,21.20
2023-03-24T13:27:16.505Z,21.50
2023-03-24T13:30:17.641Z,20.80
2023-03-24T13:33:22.361Z,20.70
2023-03-24T13:36:29.879Z,20.90
2023-03-24T13:39:15.457Z,21.00
2023-03-24T13:41:52.764Z,20.00
2023-03-24T13:44:34.387Z,19.30
2023-03-24T13:47:18.866Z,18.90
2023-03-24T13:50:06.766Z,19.20
2023-03-24T13:52:45.136Z,19.80
2023-03-24T13:55:26.245Z,20.00
2023-03-24T13:58:22.650Z,19.60
2023-03-24T14:01:14.652Z,19.60
2023-03-24T14:04:07.551Z,19.60
2023-03-24T14:06:48.633Z,19.40
2023-03-24T14:09:33.211Z,19.00
2023-03-24T14:12:04.228Z,19.20
2023-03-24T14:14:38.093Z,18.90
2023-03-24T14:17:08.996Z,18.30
2023-03-24T14:20:07.514Z,18.80
2023-03-24T14:22:49.775Z,18.40
2023-03-24T14:25:29.696Z,18.10
2023-03-24T14:28:28.628Z,18.60
2023-03-24T14:31:15.793Z,18.10
2023-03-24T14:33:53.094Z,17.90
2023-03-24T14:36:30.597Z,17.60
2023-03-24T14:39:07.690Z,17.80
2023-03-24T14:41:42.216Z,17.50
2023-03-24T14:44:13.276Z,17.20
2023-03-24T14:46:53.911Z,17.30
2023-03-24T14:49:32.649Z,16.60
2023-03-24T14:52:32.966Z,16.50
2023-03-24T14:55:18.888Z,15.70
2023-03-24T14:58:02.243Z,15.80
2023-03-24T15:00:45.479Z,15.60
2023-03-24T15:03:38.141Z,15.70
2023-03-24T15:06:19.099Z,15.50
2023-03-24T15:08:53.911Z,15.40
2023-03-24T15:11:32.660Z,15.40
2023-03-24T15:14:16.220Z,16.10
2023-03-24T15:16:57.751Z,15.70
2023-03-24T15:19:30.705Z,16.40
2023-03-24T15:22:13.257Z,16.60
2023-03-24T15:24:48.761Z,16.40
2023-03-24T15:27:29.321Z,16.50
2023-03-24T15:30:00.766Z,16.20
2023-03-24T15:32:33.038Z,16.90
2023-03-24T15:35:06.751Z,16.60
2023-03-24T15:37:48.171Z,16.80
2023-03-24T15:40:30.388Z,16.80
2023-03-24T15:43:06.709Z,17.20
2023-03-24T15:45:49.628Z,17.40
2023-03-24T15:48:26.531Z,17.40
2023-03-24T15:51:11.442Z,17.60
2023-03-24T15:53:55.410Z,17.50
2023-03-24T15:56:28.504Z,17.60
2023-03-24T15:59:11.930Z,17.20
2023-03-24T16:01:45.272Z,17.50
2023-03-24T16:04:20.728Z,17.30
2023-03-24T16:06:54.828Z,17.80
2023-03-24T16:09:37.179Z,17.50
2023-03-24T16:12:11.413Z,17.70
2023-03-24T16:14:42.414Z,17.60
2023-03-24T16:17:13.323Z,17.60
2023-03-24T16:19:44.314Z,17.40
2023-03-24T16:22:15.374Z,17.40
2023-03-24T16:24:46.356Z,18.10
2023-03-24T16:27:17.458Z,17.80
2023-03-24T16:29:49.505Z,18.00
2023-03-24T16:32:21.298Z,18.10
2023-03-24T16:34:52.224Z,18.40
2023-03-24T16:37:23.138Z,18.90
2023-03-24T16:39:54.085Z,19.00
2023-03-24T16:42:25.012Z,18.90
2023-03-24T16:44:55.941Z,18.80
2023-03-24T16:47:26.900Z,18.40
2023-03-24T16:49:57.927Z,18.80
2023-03-24T16:52:28.830Z,19.40
2023-03-24T16:54:59.732Z,18.50
2023-03-24T16:57:30.686Z,18.90
2023-03-24T17:00:02.139Z,19.50
2023-03-24T17:02:33.400Z,19.20
2023-03-24T17:05:40.641Z,19.60
2023-03-24T17:08:11.700Z,19.60
2023-03-24T17:10:45.686Z,19.50
2023-03-24T17:13:25.905Z,19.00
2023-03-24T17:15:57.602Z,19.00
2023-03-24T17:18:28.630Z,18.60
2023-03-24T17:20:59.584Z,18.90
2023-03-24T17:23:30.616Z,18.80
2023-03-24T17:26:01.527Z,18.60
2023-03-24T17:28:32.457Z,18.50
2023-03-24T17:31:03.954Z,18.30
2023-03-24T17:33:35.092Z,18.40
2023-03-24T17:36:06.831Z,18.60
2023-03-24T17:38:38.111Z,18.80
2023-03-24T17:41:09.794Z,18.70
2023-03-24T17:43:40.735Z,18.60
2023-03-24T17:46:11.765Z,18.70
2023-03-24T17:48:45.521Z,18.90
2023-03-24T17:51:17.310Z,18.80
2023-03-24T17:53:48.268Z,17.80
2023-03-24T17:56:19.253Z,18.60
2023-03-24T17:58:54.845Z,18.00
2023-03-24T18:01:29.606Z,18.40
2023-03-24T18:04:01.659Z,18.80
2023-03-24T18:06:33.706Z,18.60
2023-03-24T18:09:05.021Z,18.70
2023-03-24T18:11:36.499Z,18.30
2023-03-24T18:14:09.211Z,18.30
2023-03-24T18:16:40.366Z,18.50
2023-03-24T18:19:11.598Z,18.20
2023-03-24T18:21:44.368Z,18.00
2023-03-24T18:24:15.604Z,17.30
2023-03-24T18:26:47.086Z,17.40
2023-03-24T18:29:22.235Z,17.80
2023-03-24T18:31:53.237Z,18.00
2023-03-24T18:34:26.182Z,18.20
2023-03-24T18:36:58.341Z,17.30
2023-03-24T18:39:29.301Z,18.10
2023-03-24T18:42:00.268Z,17.30
2023-03-24T18:44:31.205Z,18.00
2023-03-24T18:47:02.071Z,18.40
2023-03-24T18:49:33.028Z,18.20
2023-03-24T18:52:04.570Z,18.20
2023-03-24T18:54:35.520Z,17.90
2023-03-24T18:57:06.669Z,18.20
2023-03-24T18:59:38.048Z,18.10
2023-03-24T19:02:11.601Z,17.20
2023-03-24T19:04:43.785Z,17.60
2023-03-24T19:07:14.902Z,17.90
2023-03-24T19:09:46.044Z,17.20
2023-03-24T19:12:17.170Z,17.30
2023-03-24T19:14:48.174Z,17.20
2023-03-24T19:17:19.121Z,17.00
2023-03-24T19:19:50.549Z,17.10
2023-03-24T19:22:22.269Z,16.80
2023-03-24T19:24:54.082Z,17.00
2023-03-24T19:27:24.988Z,16.80
2023-03-24T19:29:56.999Z,17.00
2023-03-24T19:32:27.989Z,17.30
2023-03-24T19:34:58.966Z,17.00
2023-03-24T19:37:34.152Z,17.20
2023-03-24T19:40:09.027Z,17.00
2023-03-24T19:42:41.977Z,16.30
2023-03-24T19:45:15.966Z,16.60
2023-03-24T19:47:47.332Z,16.70
2023-03-24T19:50:18.803Z,16.30
2023-03-24T19:52:49.816Z,16.40
2023-03-24T19:55:21.016Z,16.20
2023-03-24T19:57:52.020Z,16.30
2023-03-24T20:00:23.066Z,16.40
2023-03-24T20:02:54.148Z,16.40
2023-03-24T20:05:25.198Z,16.60
2023-03-24T20:07:59.706Z,16.30
2023-03-24T20:10:31.360Z,16.40
2023-03-24T20:13:02.309Z,16.20
2023-03-24T20:15:33.354Z,16.20
2023-03-24T20:18:04.685Z,16.00
2023-03-24T20:20:35.713Z,16.00
2023-03-24T20:23:06.819Z,16.10
2023-03-24T20:25:42.305Z,16.30
2023-03-24T20:28:13.324Z,16.20
2023-03-24T20:30:46.027Z,16.00
2023-03-24T20:33:17.004Z,16.30
2023-03-24T20:35:48.158Z,16.40
2023-03-24T20:38:19.246Z,16.00
2023-03-24T20:41:01.982Z,15.90
2023-03-24T20:43:37.847Z,16.20
2023-03-24T20:46:10.092Z,16.60
2023-03-24T20:48:41.348Z,16.10
2023-03-24T20:51:13.509Z,15.90
2023-03-24T20:53:44.822Z,15.90
2023-03-24T20:56:16.812Z,15.90
2023-03-24T20:58:48.329Z,16.10
2023-03-24T21:01:24.123Z,16.10
2023-03-24T21:04:00.167Z,16.10
2023-03-24T21:06:39.292Z,16.10
2023-03-24T21:09:10.688Z,16.00
2023-03-24T21:11:41.605Z,15.80
2023-03-24T21:14:12.591Z,16.00
2023-03-24T21:16:43.748Z,16.00
2023-03-24T21:19:15.220Z,15.90
2023-03-24T21:21:49.516Z,16.30
2023-03-24T21:24:20.499Z,15.80
2023-03-24T21:26:53.805Z,15.90
2023-03-24T21:29:26.625Z,16.10
2023-03-24T21:31:57.601Z,16.00
2023-03-24T21:34:28.599Z,16.30
2023-03-24T21:37:01.622Z,16.20
2023-03-24T21:39:32.852Z,16.00
2023-03-24T21:42:04.717Z,15.90
2023-03-24T21:44:35.740Z,16.10
2023-03-24T21:47:06.964Z,16.30
2023-03-24T21:49:38.040Z,16.20
2023-03-24T21:52:09.440Z,16.40
2023-03-24T21:54:40.490Z,16.80
2023-03-24T21:57:14.811Z,16.20
2023-03-24T21:59:46.098Z,16.90
2023-03-24T22:02:19.828Z,16.70
2023-03-24T22:04:50.887Z,16.70
2023-03-24T22:07:22.529Z,16.40
2023-03-24T22:09:54.436Z,16.50
2023-03-24T22:12:25.442Z,16.00
2023-03-24T22:14:56.496Z,16.60
2023-03-24T22:17:27.940Z,16.80
2023-03-24T22:19:58.909Z,16.30
2023-03-24T22:22:29.793Z,16.50
2023-03-24T22:25:00.799Z,16.00
2023-03-24T22:27:31.791Z,16.80
2023-03-24T22:30:03.275Z,17.00
2023-03-24T22:32:34.389Z,17.00
2023-03-24T22:35:06.828Z,16.70
2023-03-24T22:37:38.078Z,16.50
2023-03-24T22:40:09.803Z,16.30
2023-03-24T22:42:41.006Z,16.60
2023-03-24T22:45:12.083Z,16.70
2023-03-24T22:47:43.050Z,16.30
2023-03-24T22:50:13.989Z,16.80
2023-03-24T22:52:44.902Z,16.50
2023-03-24T22:55:16.025Z,16.80
2023-03-24T22:57:46.889Z,16.60
2023-03-24T23:00:20.897Z,16.80
2023-03-24T23:02:52.019Z,16.20
2023-03-24T23:05:23.129Z,16.20
2023-03-24T23:07:54.099Z,15.40
2023-03-24T23:10:26.238Z,15.00
2023-03-24T23:12:57.155Z,14.90
2023-03-24T23:15:28.097Z,14.90
2023-03-24T23:18:00.110Z,15.00
2023-03-24T23:20:31.290Z,14.50
2023-03-24T23:23:03.752Z,14.70
2023-03-24T23:25:45.637Z,14.10
2023-03-24T23:28:16.862Z,14.10
2023-03-24T23:30:47.758Z,14.80
2023-03-24T23:33:18.755Z,15.20
2023-03-24T23:35:59.487Z,15.30
2023-03-24T23:38:31.660Z,15.10
2023-03-24T23:41:05.807Z,15.30
2023-03-24T23:43:36.826Z,15.20
2023-03-24T23:46:08.286Z,15.30
2023-03-24T23:48:39.378Z,14.50
2023-03-24T23:51:10.920Z,14.20
2023-03-24T23:53:41.963Z,14.90
2023-03-24T23:56:14.183Z,14.70
2023-03-24T23:58:45.213Z,14.50
